sensor_id;sensor_type;location;lat;lon;timestamp;temperature;humidity
582;DHT22;277;50.074;8.436;2022-10-31T00:01:06;13.40;99.90
582;DHT22;277;50.074;8.436;2022-10-31T00:03:36;13.40;99.90
582;DHT22;277;50.074;8.436;2022-10-31T00:06:04;13.40;99.90
582;DHT22;277;50.074;8.436;2022-10-31T00:08:31;13.40;99.90
582;DHT22;277;50.074;8.436;2022-10-31T00:10:59;13.40;99.90
582;DHT22;277;50.074;8.436;2022-10-31T00:13:27;13.40;99.90
582;DHT22;277;50.074;8.436;2022-10-31T00:15:55;13.30;99.90
582;DHT22;277;50.074;8.436;2022-10-31T00:18:24;13.40;99.90
582;DHT22;277;50.074;8.436;2022-10-31T00:20:57;13.40;99.90
582;DHT22;277;50.074;8.436;2022-10-31T00:23:25;13.40;99.90
582;DHT22;277;50.074;8.436;2022-10-31T00:25:53;13.50;99.90
582;DHT22;277;50.074;8.436;2022-10-31T00:28:21;13.50;99.90
582;DHT22;277;50.074;8.436;2022-10-31T00:30:48;13.50;99.90
582;DHT22;277;50.074;8.436;2022-10-31T00:33:16;13.50;99.90
582;DHT22;277;50.074;8.436;2022-10-31T00:35:50;13.60;99.90
582;DHT22;277;50.074;8.436;2022-10-31T00:38:17;13.60;99.90
582;DHT22;277;50.074;8.436;2022-10-31T00:40:45;13.60;99.90
582;DHT22;277;50.074;8.436;2022-10-31T00:43:13;13.70;99.90
582;DHT22;277;50.074;8.436;2022-10-31T00:45:40;13.70;99.90
582;DHT22;277;50.074;8.436;2022-10-31T00:48:08;13.70;99.90
582;DHT22;277;50.074;8.436;2022-10-31T00:50:38;13.70;99.90
582;DHT22;277;50.074;8.436;2022-10-31T00:53:07;13.70;99.90
582;DHT22;277;50.074;8.436;2022-10-31T00:55:35;13.70;99.90
582;DHT22;277;50.074;8.436;2022-10-31T00:58:03;13.60;99.90
582;DHT22;277;50.074;8.436;2022-10-31T01:00:31;13.70;99.90
582;DHT22;277;50.074;8.436;2022-10-31T01:02:59;13.60;99.90
582;DHT22;277;50.074;8.436;2022-10-31T01:05:27;13.70;99.90
582;DHT22;277;50.074;8.436;2022-10-31T01:07:55;13.60;99.90
582;DHT22;277;50.074;8.436;2022-10-31T01:10:24;13.70;99.90
582;DHT22;277;50.074;8.436;2022-10-31T01:12:52;13.60;99.90
582;DHT22;277;50.074;8.436;2022-10-31T01:15:21;13.70;99.90
582;DHT22;277;50.074;8.436;2022-10-31T01:17:49;13.60;99.90
582;DHT22;277;50.074;8.436;2022-10-31T01:20:17;13.50;99.90
582;DHT22;277;50.074;8.436;2022-10-31T01:22:45;13.50;99.90
582;DHT22;277;50.074;8.436;2022-10-31T01:25:12;13.50;99.90
582;DHT22;277;50.074;8.436;2022-10-31T01:27:41;13.40;99.90
582;DHT22;277;50.074;8.436;2022-10-31T01:30:09;13.40;99.90
582;DHT22;277;50.074;8.436;2022-10-31T01:32:37;13.30;99.90
582;DHT22;277;50.074;8.436;2022-10-31T01:35:05;13.20;99.90
582;DHT22;277;50.074;8.436;2022-10-31T01:37:33;13.10;99.90
582;DHT22;277;50.074;8.436;2022-10-31T01:40:01;13.10;99.90
582;DHT22;277;50.074;8.436;2022-10-31T01:42:28;13.20;99.90
582;DHT22;277;50.074;8.436;2022-10-31T01:44:58;13.20;99.90
582;DHT22;277;50.074;8.436;2022-10-31T01:47:31;13.30;99.90
582;DHT22;277;50.074;8.436;2022-10-31T01:50:01;13.30;99.90
582;DHT22;277;50.074;8.436;2022-10-31T01:52:30;13.30;99.90
582;DHT22;277;50.074;8.436;2022-10-31T01:55:01;13.40;99.90
582;DHT22;277;50.074;8.436;2022-10-31T01:57:30;13.40;99.90
582;DHT22;277;50.074;8.436;2022-10-31T02:00:00;13.40;99.90
582;DHT22;277;50.074;8.436;2022-10-31T02:02:29;13.40;99.90
582;DHT22;277;50.074;8.436;2022-10-31T02:04:57;13.40;99.90
582;DHT22;277;50.074;8.436;2022-10-31T02:07:28;13.40;99.90
582;DHT22;277;50.074;8.436;2022-10-31T02:09:57;13.30;99.90
582;DHT22;277;50.074;8.436;2022-10-31T02:12:26;13.30;99.90
582;DHT22;277;50.074;8.436;2022-10-31T02:14:53;13.30;99.90
582;DHT22;277;50.074;8.436;2022-10-31T02:17:23;13.30;99.90
582;DHT22;277;50.074;8.436;2022-10-31T02:19:52;13.20;99.90
582;DHT22;277;50.074;8.436;2022-10-31T02:22:23;13.20;99.90
582;DHT22;277;50.074;8.436;2022-10-31T02:25:02;13.20;99.90
582;DHT22;277;50.074;8.436;2022-10-31T02:27:48;13.20;99.90
582;DHT22;277;50.074;8.436;2022-10-31T02:30:20;13.30;99.90
582;DHT22;277;50.074;8.436;2022-10-31T02:32:53;13.30;99.90
582;DHT22;277;50.074;8.436;2022-10-31T02:35:25;13.30;99.90
582;DHT22;277;50.074;8.436;2022-10-31T02:37:57;13.30;99.90
582;DHT22;277;50.074;8.436;2022-10-31T02:40:29;13.40;99.90
582;DHT22;277;50.074;8.436;2022-10-31T02:42:59;13.30;99.90
582;DHT22;277;50.074;8.436;2022-10-31T02:45:30;13.30;99.90
582;DHT22;277;50.074;8.436;2022-10-31T02:48:03;13.20;99.90
582;DHT22;277;50.074;8.436;2022-10-31T02:50:33;13.20;99.90
582;DHT22;277;50.074;8.436;2022-10-31T02:53:01;13.20;99.90
582;DHT22;277;50.074;8.436;2022-10-31T02:55:42;13.20;99.90
582;DHT22;277;50.074;8.436;2022-10-31T02:58:12;13.10;99.90
582;DHT22;277;50.074;8.436;2022-10-31T03:00:42;13.10;99.90
582;DHT22;277;50.074;8.436;2022-10-31T03:03:19;13.10;99.90
582;DHT22;277;50.074;8.436;2022-10-31T03:05:49;13.10;99.90
582;DHT22;277;50.074;8.436;2022-10-31T03:08:21;13.00;99.90
582;DHT22;277;50.074;8.436;2022-10-31T03:10:52;13.00;99.90
582;DHT22;277;50.074;8.436;2022-10-31T03:13:24;13.10;99.90
582;DHT22;277;50.074;8.436;2022-10-31T03:15:59;13.10;99.90
582;DHT22;277;50.074;8.436;2022-10-31T03:18:31;13.20;99.90
582;DHT22;277;50.074;8.436;2022-10-31T03:21:01;13.20;99.90
582;DHT22;277;50.074;8.436;2022-10-31T03:23:31;13.20;99.90
582;DHT22;277;50.074;8.436;2022-10-31T03:25:59;13.10;99.90
582;DHT22;277;50.074;8.436;2022-10-31T03:28:29;13.10;99.90
582;DHT22;277;50.074;8.436;2022-10-31T03:30:58;12.90;99.90
582;DHT22;277;50.074;8.436;2022-10-31T03:33:34;12.90;99.90
582;DHT22;277;50.074;8.436;2022-10-31T03:36:03;13.00;99.90
582;DHT22;277;50.074;8.436;2022-10-31T03:38:32;12.80;99.90
582;DHT22;277;50.074;8.436;2022-10-31T03:41:02;12.70;99.90
582;DHT22;277;50.074;8.436;2022-10-31T03:43:32;12.60;99.90
582;DHT22;277;50.074;8.436;2022-10-31T03:46:00;12.50;99.90
582;DHT22;277;50.074;8.436;2022-10-31T03:48:28;12.30;99.90
582;DHT22;277;50.074;8.436;2022-10-31T03:50:59;12.20;99.90
582;DHT22;277;50.074;8.436;2022-10-31T03:53:31;12.10;99.90
582;DHT22;277;50.074;8.436;2022-10-31T03:56:00;12.10;99.90
582;DHT22;277;50.074;8.436;2022-10-31T03:58:31;12.00;99.90
582;DHT22;277;50.074;8.436;2022-10-31T04:00:59;11.90;99.90
582;DHT22;277;50.074;8.436;2022-10-31T04:03:30;12.10;99.90
582;DHT22;277;50.074;8.436;2022-10-31T04:06:02;12.00;99.90
582;DHT22;277;50.074;8.436;2022-10-31T04:08:30;12.00;99.90
582;DHT22;277;50.074;8.436;2022-10-31T04:11:00;12.10;99.90
582;DHT22;277;50.074;8.436;2022-10-31T04:13:29;12.10;99.90
582;DHT22;277;50.074;8.436;2022-10-31T04:15:58;12.30;99.90
582;DHT22;277;50.074;8.436;2022-10-31T04:18:26;12.40;99.90
582;DHT22;277;50.074;8.436;2022-10-31T04:21:00;12.50;99.90
582;DHT22;277;50.074;8.436;2022-10-31T04:23:28;12.60;99.90
582;DHT22;277;50.074;8.436;2022-10-31T04:25:56;12.70;99.90
582;DHT22;277;50.074;8.436;2022-10-31T04:28:24;12.80;99.90
582;DHT22;277;50.074;8.436;2022-10-31T04:30:51;12.90;99.90
582;DHT22;277;50.074;8.436;2022-10-31T04:33:19;12.90;99.90
582;DHT22;277;50.074;8.436;2022-10-31T04:35:47;12.90;99.90
582;DHT22;277;50.074;8.436;2022-10-31T04:38:16;12.90;99.90
582;DHT22;277;50.074;8.436;2022-10-31T04:40:44;12.80;99.90
582;DHT22;277;50.074;8.436;2022-10-31T04:43:12;12.80;99.90
582;DHT22;277;50.074;8.436;2022-10-31T04:45:40;12.80;99.90
582;DHT22;277;50.074;8.436;2022-10-31T04:48:07;12.80;99.90
582;DHT22;277;50.074;8.436;2022-10-31T04:50:35;12.80;99.90
582;DHT22;277;50.074;8.436;2022-10-31T04:53:03;12.80;99.90
582;DHT22;277;50.074;8.436;2022-10-31T04:55:32;12.60;99.90
582;DHT22;277;50.074;8.436;2022-10-31T04:58:00;12.50;99.90
582;DHT22;277;50.074;8.436;2022-10-31T05:00:28;12.40;99.90
582;DHT22;277;50.074;8.436;2022-10-31T05:02:57;12.10;99.90
582;DHT22;277;50.074;8.436;2022-10-31T05:05:26;12.00;99.90
582;DHT22;277;50.074;8.436;2022-10-31T05:07:54;11.90;99.90
582;DHT22;277;50.074;8.436;2022-10-31T05:10:22;11.80;99.90
582;DHT22;277;50.074;8.436;2022-10-31T05:12:52;11.80;99.90
582;DHT22;277;50.074;8.436;2022-10-31T05:15:21;11.70;99.90
582;DHT22;277;50.074;8.436;2022-10-31T05:17:49;11.70;99.90
582;DHT22;277;50.074;8.436;2022-10-31T05:20:18;11.70;99.90
582;DHT22;277;50.074;8.436;2022-10-31T05:22:46;11.60;99.90
582;DHT22;277;50.074;8.436;2022-10-31T05:25:15;11.70;99.90
582;DHT22;277;50.074;8.436;2022-10-31T05:27:43;11.60;99.90
582;DHT22;277;50.074;8.436;2022-10-31T05:30:13;11.60;99.90
582;DHT22;277;50.074;8.436;2022-10-31T05:32:42;11.60;99.90
582;DHT22;277;50.074;8.436;2022-10-31T05:35:11;11.70;99.90
582;DHT22;277;50.074;8.436;2022-10-31T05:37:39;11.80;99.90
582;DHT22;277;50.074;8.436;2022-10-31T05:40:08;11.70;99.90
582;DHT22;277;50.074;8.436;2022-10-31T05:42:37;11.70;99.90
582;DHT22;277;50.074;8.436;2022-10-31T05:45:06;11.70;99.90
582;DHT22;277;50.074;8.436;2022-10-31T05:47:35;11.80;99.90
582;DHT22;277;50.074;8.436;2022-10-31T05:50:03;12.00;99.90
582;DHT22;277;50.074;8.436;2022-10-31T05:52:31;11.90;99.90
582;DHT22;277;50.074;8.436;2022-10-31T05:54:59;11.90;99.90
582;DHT22;277;50.074;8.436;2022-10-31T05:57:27;11.90;99.90
582;DHT22;277;50.074;8.436;2022-10-31T05:59:55;11.90;99.90
582;DHT22;277;50.074;8.436;2022-10-31T06:02:23;11.90;99.90
582;DHT22;277;50.074;8.436;2022-10-31T06:04:52;12.00;99.90
582;DHT22;277;50.074;8.436;2022-10-31T06:07:20;12.10;99.90
582;DHT22;277;50.074;8.436;2022-10-31T06:09:48;12.10;99.90
582;DHT22;277;50.074;8.436;2022-10-31T06:12:16;12.00;99.90
582;DHT22;277;50.074;8.436;2022-10-31T06:14:43;12.00;99.90
582;DHT22;277;50.074;8.436;2022-10-31T06:17:11;12.10;99.90
582;DHT22;277;50.074;8.436;2022-10-31T06:19:39;12.10;99.90
582;DHT22;277;50.074;8.436;2022-10-31T06:22:08;12.10;99.90
582;DHT22;277;50.074;8.436;2022-10-31T06:24:37;12.10;99.90
582;DHT22;277;50.074;8.436;2022-10-31T06:27:05;12.10;99.90
582;DHT22;277;50.074;8.436;2022-10-31T06:29:33;12.20;99.90
582;DHT22;277;50.074;8.436;2022-10-31T06:32:01;12.20;99.90
582;DHT22;277;50.074;8.436;2022-10-31T06:34:28;12.10;99.90
582;DHT22;277;50.074;8.436;2022-10-31T06:36:56;12.20;99.90
582;DHT22;277;50.074;8.436;2022-10-31T06:39:25;12.30;99.90
582;DHT22;277;50.074;8.436;2022-10-31T06:41:53;12.40;99.90
582;DHT22;277;50.074;8.436;2022-10-31T06:44:20;12.60;99.90
582;DHT22;277;50.074;8.436;2022-10-31T06:46:48;12.60;99.90
582;DHT22;277;50.074;8.436;2022-10-31T06:49:16;12.80;99.90
582;DHT22;277;50.074;8.436;2022-10-31T06:51:46;12.80;99.90
582;DHT22;277;50.074;8.436;2022-10-31T06:54:14;12.80;99.90
582;DHT22;277;50.074;8.436;2022-10-31T06:56:44;12.80;99.90
582;DHT22;277;50.074;8.436;2022-10-31T06:59:12;12.90;99.90
582;DHT22;277;50.074;8.436;2022-10-31T07:01:40;13.10;99.90
582;DHT22;277;50.074;8.436;2022-10-31T07:04:08;13.20;99.90
582;DHT22;277;50.074;8.436;2022-10-31T07:06:36;13.30;99.90
582;DHT22;277;50.074;8.436;2022-10-31T07:09:04;13.30;99.90
582;DHT22;277;50.074;8.436;2022-10-31T07:11:32;13.30;99.90
582;DHT22;277;50.074;8.436;2022-10-31T07:14:01;13.30;99.90
582;DHT22;277;50.074;8.436;2022-10-31T07:16:29;13.40;99.90
582;DHT22;277;50.074;8.436;2022-10-31T07:18:56;13.40;99.90
582;DHT22;277;50.074;8.436;2022-10-31T07:21:24;13.50;99.90
582;DHT22;277;50.074;8.436;2022-10-31T07:23:52;13.50;99.90
582;DHT22;277;50.074;8.436;2022-10-31T07:26:20;13.50;99.90
582;DHT22;277;50.074;8.436;2022-10-31T07:28:48;13.60;99.90
582;DHT22;277;50.074;8.436;2022-10-31T07:31:17;13.60;99.90
582;DHT22;277;50.074;8.436;2022-10-31T07:33:45;13.60;99.90
582;DHT22;277;50.074;8.436;2022-10-31T07:36:12;13.60;99.90
582;DHT22;277;50.074;8.436;2022-10-31T07:38:40;13.70;99.90
582;DHT22;277;50.074;8.436;2022-10-31T07:41:08;13.80;99.90
582;DHT22;277;50.074;8.436;2022-10-31T07:43:36;13.90;99.90
582;DHT22;277;50.074;8.436;2022-10-31T07:46:03;14.00;99.90
582;DHT22;277;50.074;8.436;2022-10-31T07:48:32;14.20;99.90
582;DHT22;277;50.074;8.436;2022-10-31T07:51:00;14.20;99.90
582;DHT22;277;50.074;8.436;2022-10-31T07:53:28;14.30;99.90
582;DHT22;277;50.074;8.436;2022-10-31T07:55:56;14.40;99.90
582;DHT22;277;50.074;8.436;2022-10-31T07:58:23;14.40;99.90
582;DHT22;277;50.074;8.436;2022-10-31T08:00:51;14.50;99.90
582;DHT22;277;50.074;8.436;2022-10-31T08:03:19;14.60;99.90
582;DHT22;277;50.074;8.436;2022-10-31T08:05:48;14.60;99.90
582;DHT22;277;50.074;8.436;2022-10-31T08:08:16;14.60;99.90
582;DHT22;277;50.074;8.436;2022-10-31T08:10:43;14.60;99.90
582;DHT22;277;50.074;8.436;2022-10-31T08:13:12;14.70;99.90
582;DHT22;277;50.074;8.436;2022-10-31T08:15:40;14.70;99.90
582;DHT22;277;50.074;8.436;2022-10-31T08:18:10;14.90;99.90
582;DHT22;277;50.074;8.436;2022-10-31T08:20:38;15.00;99.90
582;DHT22;277;50.074;8.436;2022-10-31T08:23:08;15.10;99.90
582;DHT22;277;50.074;8.436;2022-10-31T08:25:36;15.20;99.90
582;DHT22;277;50.074;8.436;2022-10-31T08:28:05;15.40;99.90
582;DHT22;277;50.074;8.436;2022-10-31T08:30:33;15.40;99.90
582;DHT22;277;50.074;8.436;2022-10-31T08:33:01;15.50;99.90
582;DHT22;277;50.074;8.436;2022-10-31T08:35:29;15.40;99.90
582;DHT22;277;50.074;8.436;2022-10-31T08:37:57;15.30;99.90
582;DHT22;277;50.074;8.436;2022-10-31T08:40:28;15.00;99.90
582;DHT22;277;50.074;8.436;2022-10-31T08:42:57;15.10;99.90
582;DHT22;277;50.074;8.436;2022-10-31T08:45:25;15.20;99.90
582;DHT22;277;50.074;8.436;2022-10-31T08:47:56;15.10;99.90
582;DHT22;277;50.074;8.436;2022-10-31T08:50:24;15.10;99.90
582;DHT22;277;50.074;8.436;2022-10-31T08:52:52;15.30;99.90
582;DHT22;277;50.074;8.436;2022-10-31T08:55:36;15.50;99.90
582;DHT22;277;50.074;8.436;2022-10-31T08:58:05;15.70;99.90
582;DHT22;277;50.074;8.436;2022-10-31T09:00:33;15.90;99.90
582;DHT22;277;50.074;8.436;2022-10-31T09:03:01;16.00;99.90
582;DHT22;277;50.074;8.436;2022-10-31T09:05:30;16.10;99.90
582;DHT22;277;50.074;8.436;2022-10-31T09:07:58;16.10;99.90
582;DHT22;277;50.074;8.436;2022-10-31T09:10:27;16.00;99.90
582;DHT22;277;50.074;8.436;2022-10-31T09:12:57;16.00;99.90
582;DHT22;277;50.074;8.436;2022-10-31T09:15:25;16.10;99.90
582;DHT22;277;50.074;8.436;2022-10-31T09:17:53;16.10;99.90
582;DHT22;277;50.074;8.436;2022-10-31T09:20:21;16.10;99.90
582;DHT22;277;50.074;8.436;2022-10-31T09:22:54;16.10;99.90
582;DHT22;277;50.074;8.436;2022-10-31T09:25:22;16.30;99.90
582;DHT22;277;50.074;8.436;2022-10-31T09:27:50;16.20;99.90
582;DHT22;277;50.074;8.436;2022-10-31T09:30:19;16.30;99.90
582;DHT22;277;50.074;8.436;2022-10-31T09:32:47;16.30;99.90
582;DHT22;277;50.074;8.436;2022-10-31T09:35:15;16.20;99.90
582;DHT22;277;50.074;8.436;2022-10-31T09:37:47;16.20;99.90
582;DHT22;277;50.074;8.436;2022-10-31T09:40:15;16.30;99.90
582;DHT22;277;50.074;8.436;2022-10-31T09:42:46;16.40;99.90
582;DHT22;277;50.074;8.436;2022-10-31T09:45:16;16.50;99.90
582;DHT22;277;50.074;8.436;2022-10-31T09:47:50;16.50;99.90
582;DHT22;277;50.074;8.436;2022-10-31T09:50:20;16.60;99.90
582;DHT22;277;50.074;8.436;2022-10-31T09:52:51;16.70;99.90
582;DHT22;277;50.074;8.436;2022-10-31T09:55:23;16.70;99.90
582;DHT22;277;50.074;8.436;2022-10-31T09:57:54;16.70;99.90
582;DHT22;277;50.074;8.436;2022-10-31T10:00:21;16.60;99.90
582;DHT22;277;50.074;8.436;2022-10-31T10:02:51;16.60;99.90
582;DHT22;277;50.074;8.436;2022-10-31T10:05:21;16.70;99.90
582;DHT22;277;50.074;8.436;2022-10-31T10:07:53;16.70;99.90
582;DHT22;277;50.074;8.436;2022-10-31T10:10:24;16.70;99.90
582;DHT22;277;50.074;8.436;2022-10-31T10:13:03;16.70;99.90
582;DHT22;277;50.074;8.436;2022-10-31T10:15:46;16.70;99.90
582;DHT22;277;50.074;8.436;2022-10-31T10:18:21;16.60;99.90
582;DHT22;277;50.074;8.436;2022-10-31T10:20:56;16.80;99.90
582;DHT22;277;50.074;8.436;2022-10-31T10:23:29;16.90;99.90
582;DHT22;277;50.074;8.436;2022-10-31T10:26:00;17.00;99.90
582;DHT22;277;50.074;8.436;2022-10-31T10:28:37;17.00;99.90
582;DHT22;277;50.074;8.436;2022-10-31T10:31:07;16.90;99.90
582;DHT22;277;50.074;8.436;2022-10-31T10:33:37;16.90;99.90
582;DHT22;277;50.074;8.436;2022-10-31T10:36:09;16.90;99.90
582;DHT22;277;50.074;8.436;2022-10-31T10:38:38;17.00;99.90
582;DHT22;277;50.074;8.436;2022-10-31T10:41:10;16.90;99.90
582;DHT22;277;50.074;8.436;2022-10-31T10:43:40;17.00;99.90
582;DHT22;277;50.074;8.436;2022-10-31T10:46:14;17.10;99.90
582;DHT22;277;50.074;8.436;2022-10-31T10:49:05;17.20;99.90
582;DHT22;277;50.074;8.436;2022-10-31T10:51:37;17.30;99.90
582;DHT22;277;50.074;8.436;2022-10-31T10:54:38;17.50;99.90
582;DHT22;277;50.074;8.436;2022-10-31T10:57:10;17.60;99.90
582;DHT22;277;50.074;8.436;2022-10-31T10:59:39;17.60;99.90
582;DHT22;277;50.074;8.436;2022-10-31T11:02:16;17.70;99.90
582;DHT22;277;50.074;8.436;2022-10-31T11:04:47;17.80;99.90
582;DHT22;277;50.074;8.436;2022-10-31T11:07:16;18.00;99.90
582;DHT22;277;50.074;8.436;2022-10-31T11:09:44;18.10;99.90
582;DHT22;277;50.074;8.436;2022-10-31T11:12:16;18.20;99.90
582;DHT22;277;50.074;8.436;2022-10-31T11:14:45;18.40;99.90
582;DHT22;277;50.074;8.436;2022-10-31T11:17:22;18.50;99.90
582;DHT22;277;50.074;8.436;2022-10-31T11:20:01;18.50;99.90
582;DHT22;277;50.074;8.436;2022-10-31T11:22:29;18.50;99.90
582;DHT22;277;50.074;8.436;2022-10-31T11:24:57;18.40;99.90
582;DHT22;277;50.074;8.436;2022-10-31T11:27:25;18.60;99.90
582;DHT22;277;50.074;8.436;2022-10-31T11:30:03;18.70;99.90
582;DHT22;277;50.074;8.436;2022-10-31T11:32:31;18.90;99.90
582;DHT22;277;50.074;8.436;2022-10-31T11:34:59;19.10;99.90
582;DHT22;277;50.074;8.436;2022-10-31T11:37:31;19.10;99.90
582;DHT22;277;50.074;8.436;2022-10-31T11:40:02;19.30;99.90
582;DHT22;277;50.074;8.436;2022-10-31T11:42:35;19.50;99.90
582;DHT22;277;50.074;8.436;2022-10-31T11:45:06;19.60;99.90
582;DHT22;277;50.074;8.436;2022-10-31T11:47:35;19.80;99.90
582;DHT22;277;50.074;8.436;2022-10-31T11:50:09;19.90;99.90
582;DHT22;277;50.074;8.436;2022-10-31T11:52:39;19.90;99.90
582;DHT22;277;50.074;8.436;2022-10-31T11:55:14;19.90;99.90
582;DHT22;277;50.074;8.436;2022-10-31T11:57:43;20.00;99.90
582;DHT22;277;50.074;8.436;2022-10-31T12:00:20;19.80;99.90
582;DHT22;277;50.074;8.436;2022-10-31T12:02:48;19.80;99.90
582;DHT22;277;50.074;8.436;2022-10-31T12:05:17;19.70;99.90
582;DHT22;277;50.074;8.436;2022-10-31T12:07:47;19.70;99.90
582;DHT22;277;50.074;8.436;2022-10-31T12:10:15;19.70;99.90
582;DHT22;277;50.074;8.436;2022-10-31T12:12:50;19.70;99.90
582;DHT22;277;50.074;8.436;2022-10-31T12:15:24;19.60;99.90
582;DHT22;277;50.074;8.436;2022-10-31T12:17:57;19.60;99.90
582;DHT22;277;50.074;8.436;2022-10-31T12:20:30;19.60;99.90
582;DHT22;277;50.074;8.436;2022-10-31T12:23:03;19.70;99.90
582;DHT22;277;50.074;8.436;2022-10-31T12:25:36;20.00;99.90
582;DHT22;277;50.074;8.436;2022-10-31T12:28:11;20.30;99.90
582;DHT22;277;50.074;8.436;2022-10-31T12:30:46;20.50;99.90
582;DHT22;277;50.074;8.436;2022-10-31T12:33:24;20.90;99.90
582;DHT22;277;50.074;8.436;2022-10-31T12:35:57;21.10;99.90
582;DHT22;277;50.074;8.436;2022-10-31T12:38:33;21.50;99.90
582;DHT22;277;50.074;8.436;2022-10-31T12:41:07;21.60;99.90
582;DHT22;277;50.074;8.436;2022-10-31T12:43:40;22.00;99.90
582;DHT22;277;50.074;8.436;2022-10-31T12:46:10;22.10;99.90
582;DHT22;277;50.074;8.436;2022-10-31T12:48:47;22.10;99.90
582;DHT22;277;50.074;8.436;2022-10-31T12:51:25;22.00;99.90
582;DHT22;277;50.074;8.436;2022-10-31T12:54:02;21.90;99.90
582;DHT22;277;50.074;8.436;2022-10-31T12:56:39;21.70;99.90
582;DHT22;277;50.074;8.436;2022-10-31T12:59:10;21.60;99.90
582;DHT22;277;50.074;8.436;2022-10-31T13:01:42;21.50;99.90
582;DHT22;277;50.074;8.436;2022-10-31T13:04:15;21.60;99.90
582;DHT22;277;50.074;8.436;2022-10-31T13:06:46;21.50;99.90
582;DHT22;277;50.074;8.436;2022-10-31T13:09:17;21.40;99.90
582;DHT22;277;50.074;8.436;2022-10-31T13:11:46;21.10;99.90
582;DHT22;277;50.074;8.436;2022-10-31T13:14:16;20.70;99.90
582;DHT22;277;50.074;8.436;2022-10-31T13:16:47;20.50;99.90
582;DHT22;277;50.074;8.436;2022-10-31T13:19:16;20.30;99.90
582;DHT22;277;50.074;8.436;2022-10-31T13:21:47;20.10;99.90
582;DHT22;277;50.074;8.436;2022-10-31T13:24:21;20.00;99.90
582;DHT22;277;50.074;8.436;2022-10-31T13:26:50;19.90;99.90
582;DHT22;277;50.074;8.436;2022-10-31T13:29:20;19.70;99.90
582;DHT22;277;50.074;8.436;2022-10-31T13:31:55;19.50;99.90
582;DHT22;277;50.074;8.436;2022-10-31T13:34:25;19.50;99.90
582;DHT22;277;50.074;8.436;2022-10-31T13:36:58;19.40;99.90
582;DHT22;277;50.074;8.436;2022-10-31T13:39:32;19.40;99.90
582;DHT22;277;50.074;8.436;2022-10-31T13:42:03;19.30;99.90
582;DHT22;277;50.074;8.436;2022-10-31T13:44:34;19.40;99.90
582;DHT22;277;50.074;8.436;2022-10-31T13:47:19;19.40;99.90
582;DHT22;277;50.074;8.436;2022-10-31T13:49:47;19.40;99.90
582;DHT22;277;50.074;8.436;2022-10-31T13:52:16;19.30;99.90
582;DHT22;277;50.074;8.436;2022-10-31T13:54:46;19.20;99.90
582;DHT22;277;50.074;8.436;2022-10-31T13:57:17;19.20;99.90
582;DHT22;277;50.074;8.436;2022-10-31T13:59:49;19.00;99.90
582;DHT22;277;50.074;8.436;2022-10-31T14:02:18;19.00;99.90
582;DHT22;277;50.074;8.436;2022-10-31T14:04:50;18.90;99.90
582;DHT22;277;50.074;8.436;2022-10-31T14:07:20;18.90;99.90
582;DHT22;277;50.074;8.436;2022-10-31T14:09:52;18.80;99.90
582;DHT22;277;50.074;8.436;2022-10-31T14:12:23;18.70;99.90
582;DHT22;277;50.074;8.436;2022-10-31T14:14:53;18.60;99.90
582;DHT22;277;50.074;8.436;2022-10-31T14:17:23;18.60;99.90
582;DHT22;277;50.074;8.436;2022-10-31T14:20:02;18.50;99.90
582;DHT22;277;50.074;8.436;2022-10-31T14:22:30;18.60;99.90
582;DHT22;277;50.074;8.436;2022-10-31T14:27:46;18.60;99.90
582;DHT22;277;50.074;8.436;2022-10-31T14:30:15;18.70;99.90
582;DHT22;277;50.074;8.436;2022-10-31T14:32:43;18.80;99.90
582;DHT22;277;50.074;8.436;2022-10-31T14:35:13;18.90;99.90
582;DHT22;277;50.074;8.436;2022-10-31T14:37:52;19.00;99.90
582;DHT22;277;50.074;8.436;2022-10-31T14:40:25;19.10;99.90
582;DHT22;277;50.074;8.436;2022-10-31T14:43:00;19.20;99.90
582;DHT22;277;50.074;8.436;2022-10-31T14:45:34;19.20;99.90
582;DHT22;277;50.074;8.436;2022-10-31T14:48:09;19.30;99.90
582;DHT22;277;50.074;8.436;2022-10-31T14:50:44;19.30;99.90
582;DHT22;277;50.074;8.436;2022-10-31T14:53:14;19.40;99.90
582;DHT22;277;50.074;8.436;2022-10-31T14:55:44;19.40;99.90
582;DHT22;277;50.074;8.436;2022-10-31T14:58:15;19.40;99.90
582;DHT22;277;50.074;8.436;2022-10-31T15:00:45;19.40;99.90
582;DHT22;277;50.074;8.436;2022-10-31T15:03:14;19.40;99.90
582;DHT22;277;50.074;8.436;2022-10-31T15:05:44;19.20;99.90
582;DHT22;277;50.074;8.436;2022-10-31T15:08:13;19.20;99.90
582;DHT22;277;50.074;8.436;2022-10-31T15:10:44;19.10;99.90
582;DHT22;277;50.074;8.436;2022-10-31T15:13:17;19.00;99.90
582;DHT22;277;50.074;8.436;2022-10-31T15:15:45;19.00;99.90
582;DHT22;277;50.074;8.436;2022-10-31T15:18:19;18.90;99.90
582;DHT22;277;50.074;8.436;2022-10-31T15:20:47;18.80;99.90
582;DHT22;277;50.074;8.436;2022-10-31T15:23:16;18.70;99.90
582;DHT22;277;50.074;8.436;2022-10-31T15:25:44;18.60;99.90
582;DHT22;277;50.074;8.436;2022-10-31T15:28:12;18.50;99.90
582;DHT22;277;50.074;8.436;2022-10-31T15:30:48;18.50;99.90
582;DHT22;277;50.074;8.436;2022-10-31T15:33:18;18.30;99.90
582;DHT22;277;50.074;8.436;2022-10-31T15:35:53;18.20;99.90
582;DHT22;277;50.074;8.436;2022-10-31T15:38:22;18.20;99.90
582;DHT22;277;50.074;8.436;2022-10-31T15:40:51;18.20;99.90
582;DHT22;277;50.074;8.436;2022-10-31T15:43:20;18.10;99.90
582;DHT22;277;50.074;8.436;2022-10-31T15:45:49;18.10;99.90
582;DHT22;277;50.074;8.436;2022-10-31T15:48:18;18.00;99.90
582;DHT22;277;50.074;8.436;2022-10-31T15:50:46;17.90;99.90
582;DHT22;277;50.074;8.436;2022-10-31T15:53:16;17.90;99.90
582;DHT22;277;50.074;8.436;2022-10-31T15:55:46;17.80;99.90
582;DHT22;277;50.074;8.436;2022-10-31T15:58:16;17.60;99.90
582;DHT22;277;50.074;8.436;2022-10-31T16:00:44;17.50;99.90
582;DHT22;277;50.074;8.436;2022-10-31T16:03:22;17.40;99.90
582;DHT22;277;50.074;8.436;2022-10-31T16:05:51;17.30;99.90
582;DHT22;277;50.074;8.436;2022-10-31T16:08:23;17.10;99.90
582;DHT22;277;50.074;8.436;2022-10-31T16:10:51;17.00;99.90
582;DHT22;277;50.074;8.436;2022-10-31T16:13:20;16.80;99.90
582;DHT22;277;50.074;8.436;2022-10-31T16:15:51;16.70;99.90
582;DHT22;277;50.074;8.436;2022-10-31T16:18:41;16.60;99.90
582;DHT22;277;50.074;8.436;2022-10-31T16:21:09;16.50;99.90
582;DHT22;277;50.074;8.436;2022-10-31T16:23:38;16.50;99.90
582;DHT22;277;50.074;8.436;2022-10-31T16:26:07;16.40;99.90
582;DHT22;277;50.074;8.436;2022-10-31T16:28:35;16.30;99.90
582;DHT22;277;50.074;8.436;2022-10-31T16:31:12;16.20;99.90
582;DHT22;277;50.074;8.436;2022-10-31T16:33:42;16.20;99.90
582;DHT22;277;50.074;8.436;2022-10-31T16:39:01;16.20;99.90
582;DHT22;277;50.074;8.436;2022-10-31T16:41:29;16.10;99.90
582;DHT22;277;50.074;8.436;2022-10-31T16:43:57;16.00;99.90
582;DHT22;277;50.074;8.436;2022-10-31T16:46:25;15.90;99.90
582;DHT22;277;50.074;8.436;2022-10-31T16:48:55;16.00;99.90
582;DHT22;277;50.074;8.436;2022-10-31T16:51:22;15.90;99.90
582;DHT22;277;50.074;8.436;2022-10-31T16:53:50;16.00;99.90
582;DHT22;277;50.074;8.436;2022-10-31T16:56:20;16.00;99.90
582;DHT22;277;50.074;8.436;2022-10-31T16:58:49;16.00;99.90